FIN260 LIMC-LIRF
Flight info
| Callsign | FIN260 |
|---|---|
| Flight time | N/A |
| Altitude | 37000 |
| Route | ROBAS DCT TINKU DCT XIBIL |
| Aircraft | A320/M-SDE3FGHIRWY/LB1 |
Departure
| Time | 2026-05-07 10:02 |
|---|---|
| Airport | Milan Malpensa International Airport (LIMC) |
Arrival
| Time | N/A |
|---|---|
| Airport | Rome–Fiumicino Leonardo da Vinci International Airport (LIRF) |
| Time | Latitude | Longitude | Altitude | Speed | Heading |
|---|---|---|---|---|---|
| 2026-05-07 09:45 | 45.62421 | 8.71774 | 730 ft | 0 kts | 324° |
| 2026-05-07 09:52 | 45.62420 | 8.71775 | 730 ft | 1 kts | 324° |
| 2026-05-07 09:53 | 45.62408 | 8.71787 | 729 ft | 2 kts | 324° |
| 2026-05-07 09:53 | 45.62392 | 8.71804 | 729 ft | 2 kts | 333° |
| 2026-05-07 09:53 | 45.62378 | 8.71811 | 729 ft | 2 kts | 351° |
| 2026-05-07 09:53 | 45.62368 | 8.71813 | 728 ft | 2 kts | 2° |
| 2026-05-07 09:54 | 45.62348 | 8.71807 | 728 ft | 2 kts | 24° |
| 2026-05-07 09:54 | 45.62335 | 8.71796 | 728 ft | 2 kts | 40° |
| 2026-05-07 09:54 | 45.62328 | 8.71786 | 728 ft | 2 kts | 51° |
| 2026-05-07 09:54 | 45.62320 | 8.71768 | 728 ft | 2 kts | 68° |
| 2026-05-07 09:55 | 45.62317 | 8.71751 | 728 ft | 1 kts | 82° |
| 2026-05-07 09:55 | 45.62316 | 8.71747 | 728 ft | 0 kts | 80° |
| 2026-05-07 09:56 | 45.62317 | 8.71752 | 728 ft | 1 kts | 79° |
| 2026-05-07 09:56 | 45.62320 | 8.71774 | 728 ft | 3 kts | 80° |
| 2026-05-07 09:57 | 45.62324 | 8.71809 | 728 ft | 7 kts | 80° |
| 2026-05-07 09:57 | 45.62336 | 8.71902 | 727 ft | 11 kts | 80° |
| 2026-05-07 09:57 | 45.62352 | 8.72021 | 727 ft | 13 kts | 79° |
| 2026-05-07 09:57 | 45.62358 | 8.72201 | 726 ft | 14 kts | 127° |
| 2026-05-07 09:58 | 45.62268 | 8.72244 | 723 ft | 14 kts | 170° |
| 2026-05-07 09:58 | 45.62231 | 8.72369 | 722 ft | 16 kts | 82° |
| 2026-05-07 09:58 | 45.62242 | 8.72478 | 721 ft | 16 kts | 80° |
| 2026-05-07 09:58 | 45.62264 | 8.72645 | 720 ft | 17 kts | 79° |
| 2026-05-07 09:59 | 45.62300 | 8.72876 | 719 ft | 18 kts | 77° |
| 2026-05-07 09:59 | 45.62282 | 8.73024 | 717 ft | 16 kts | 154° |
| 2026-05-07 09:59 | 45.62204 | 8.73048 | 716 ft | 17 kts | 171° |
| 2026-05-07 09:59 | 45.62027 | 8.73093 | 711 ft | 20 kts | 168° |
| 2026-05-07 10:00 | 45.61931 | 8.73122 | 709 ft | 21 kts | 168° |
| 2026-05-07 10:00 | 45.61782 | 8.73172 | 706 ft | 22 kts | 153° |
| 2026-05-07 10:00 | 45.61645 | 8.73406 | 701 ft | 23 kts | 124° |
| 2026-05-07 10:00 | 45.61593 | 8.73532 | 700 ft | 21 kts | 108° |
| 2026-05-07 10:01 | 45.61671 | 8.73720 | 700 ft | 19 kts | 359° |
| 2026-05-07 10:01 | 45.61950 | 8.73648 | 706 ft | 73 kts | 350° |
| 2026-05-07 10:01 | 45.62387 | 8.73527 | 717 ft | 115 kts | 349° |
| 2026-05-07 10:01 | 45.63728 | 8.73164 | 846 ft | 170 kts | 350° |
| 2026-05-07 10:02 | 45.64527 | 8.72971 | 1124 ft | 179 kts | 354° |
| 2026-05-07 10:02 | 45.66227 | 8.72783 | 1968 ft | 192 kts | 355° |
| 2026-05-07 10:02 | 45.67611 | 8.72575 | 2453 ft | 207 kts | 358° |
| 2026-05-07 10:02 | 45.69065 | 8.72533 | 2929 ft | 218 kts | 0° |
| 2026-05-07 10:03 | 45.70628 | 8.72527 | 3381 ft | 231 kts | 359° |
| 2026-05-07 10:03 | 45.72207 | 8.72110 | 4006 ft | 236 kts | 332° |
| 2026-05-07 10:03 | 45.73063 | 8.71149 | 4458 ft | 238 kts | 308° |
| 2026-05-07 10:03 | 45.73745 | 8.68202 | 5320 ft | 243 kts | 266° |
| 2026-05-07 10:04 | 45.73183 | 8.65895 | 5708 ft | 258 kts | 231° |
| 2026-05-07 10:04 | 45.72275 | 8.64737 | 5946 ft | 269 kts | 207° |
| 2026-05-07 10:04 | 45.69836 | 8.64328 | 6661 ft | 277 kts | 161° |
| 2026-05-07 10:04 | 45.68697 | 8.65120 | 7154 ft | 277 kts | 146° |
| 2026-05-07 10:05 | 45.66629 | 8.67282 | 8170 ft | 279 kts | 142° |
| 2026-05-07 10:05 | 45.65076 | 8.68987 | 8938 ft | 282 kts | 142° |
| 2026-05-07 10:05 | 45.63526 | 8.70657 | 9697 ft | 285 kts | 143° |
| 2026-05-07 10:05 | 45.61920 | 8.72352 | 10426 ft | 289 kts | 143° |
| 2026-05-07 10:06 | 45.60844 | 8.73472 | 10709 ft | 299 kts | 144° |
| 2026-05-07 10:06 | 45.59108 | 8.75267 | 11157 ft | 312 kts | 144° |
| 2026-05-07 10:06 | 45.56721 | 8.77713 | 12020 ft | 320 kts | 145° |
| 2026-05-07 10:06 | 45.55534 | 8.78927 | 12454 ft | 323 kts | 145° |
| 2026-05-07 10:07 | 45.53708 | 8.80786 | 13130 ft | 326 kts | 146° |
| 2026-05-07 10:07 | 45.51854 | 8.82671 | 13781 ft | 330 kts | 146° |
| 2026-05-07 10:07 | 45.49984 | 8.84566 | 14402 ft | 334 kts | 146° |
| 2026-05-07 10:07 | 45.47422 | 8.87159 | 15221 ft | 339 kts | 146° |
| 2026-05-07 10:08 | 45.46127 | 8.88468 | 15632 ft | 341 kts | 146° |
| 2026-05-07 10:08 | 45.44189 | 8.90426 | 16234 ft | 345 kts | 146° |
| 2026-05-07 10:08 | 45.42227 | 8.92408 | 16801 ft | 348 kts | 146° |
| 2026-05-07 10:08 | 45.40266 | 8.94386 | 17261 ft | 352 kts | 146° |
| 2026-05-07 10:09 | 45.38265 | 8.96400 | 17748 ft | 354 kts | 146° |
| 2026-05-07 10:09 | 45.36234 | 8.98443 | 18233 ft | 356 kts | 146° |
| 2026-05-07 10:09 | 45.34205 | 9.00483 | 18689 ft | 358 kts | 145° |
| 2026-05-07 10:09 | 45.32185 | 9.02518 | 19262 ft | 360 kts | 146° |
| 2026-05-07 10:10 | 45.30129 | 9.04592 | 19852 ft | 362 kts | 146° |
| 2026-05-07 10:10 | 45.28075 | 9.06663 | 20426 ft | 365 kts | 147° |
| 2026-05-07 10:10 | 45.26006 | 9.08746 | 20992 ft | 368 kts | 147° |
| 2026-05-07 10:10 | 45.23223 | 9.11536 | 21651 ft | 369 kts | 148° |
| 2026-05-07 10:11 | 45.21830 | 9.12927 | 21950 ft | 372 kts | 148° |
| 2026-05-07 10:11 | 45.19698 | 9.15056 | 22415 ft | 375 kts | 148° |
| 2026-05-07 10:11 | 45.16865 | 9.17883 | 23033 ft | 378 kts | 148° |
| 2026-05-07 10:11 | 45.15428 | 9.19317 | 23334 ft | 379 kts | 148° |
| 2026-05-07 10:12 | 45.13281 | 9.21458 | 23765 ft | 381 kts | 148° |
| 2026-05-07 10:12 | 45.11099 | 9.23631 | 24185 ft | 383 kts | 149° |
| 2026-05-07 10:12 | 45.08197 | 9.26516 | 24729 ft | 387 kts | 149° |
| 2026-05-07 10:12 | 45.06705 | 9.27998 | 25005 ft | 388 kts | 149° |
| 2026-05-07 10:13 | 45.04499 | 9.30190 | 25402 ft | 390 kts | 149° |
| 2026-05-07 10:13 | 45.02289 | 9.32384 | 25783 ft | 392 kts | 149° |
| 2026-05-07 10:13 | 44.99306 | 9.35341 | 26289 ft | 395 kts | 150° |
| 2026-05-07 10:13 | 44.97799 | 9.36832 | 26538 ft | 397 kts | 150° |
| 2026-05-07 10:14 | 44.95565 | 9.39043 | 26901 ft | 398 kts | 150° |
| 2026-05-07 10:14 | 44.93280 | 9.41302 | 27260 ft | 400 kts | 150° |
| 2026-05-07 10:14 | 44.91007 | 9.43549 | 27610 ft | 402 kts | 150° |
| 2026-05-07 10:14 | 44.88695 | 9.45831 | 27961 ft | 404 kts | 150° |
| 2026-05-07 10:15 | 44.86403 | 9.48091 | 28300 ft | 406 kts | 150° |
| 2026-05-07 10:15 | 44.84089 | 9.50371 | 28633 ft | 408 kts | 151° |
| 2026-05-07 10:15 | 44.81784 | 9.52639 | 28960 ft | 409 kts | 151° |
| 2026-05-07 10:15 | 44.79442 | 9.54941 | 29280 ft | 411 kts | 151° |
| 2026-05-07 10:16 | 44.77096 | 9.57243 | 29597 ft | 413 kts | 151° |
| 2026-05-07 10:16 | 44.74735 | 9.59559 | 29928 ft | 415 kts | 151° |
| 2026-05-07 10:16 | 44.72368 | 9.61878 | 30249 ft | 416 kts | 152° |
| 2026-05-07 10:16 | 44.69992 | 9.64203 | 30555 ft | 418 kts | 152° |
| 2026-05-07 10:17 | 44.67592 | 9.66550 | 30853 ft | 420 kts | 153° |
| 2026-05-07 10:17 | 44.65216 | 9.68871 | 31143 ft | 421 kts | 153° |
| 2026-05-07 10:17 | 44.62796 | 9.71232 | 31431 ft | 423 kts | 153° |
| 2026-05-07 10:17 | 44.60385 | 9.73582 | 31675 ft | 424 kts | 153° |
| 2026-05-07 10:18 | 44.57956 | 9.75947 | 31910 ft | 426 kts | 153° |
| 2026-05-07 10:18 | 44.55519 | 9.78316 | 32134 ft | 427 kts | 153° |
| 2026-05-07 10:18 | 44.53101 | 9.80665 | 32346 ft | 429 kts | 153° |
| 2026-05-07 10:18 | 44.50637 | 9.83029 | 32543 ft | 429 kts | 155° |
| 2026-05-07 10:19 | 44.48035 | 9.85029 | 32745 ft | 425 kts | 161° |
| 2026-05-07 10:19 | 44.45376 | 9.86869 | 32948 ft | 425 kts | 161° |
| 2026-05-07 10:19 | 44.42723 | 9.88677 | 33006 ft | 430 kts | 162° |
| 2026-05-07 10:20 | 44.37309 | 9.92375 | 33035 ft | 442 kts | 161° |
| 2026-05-07 10:20 | 44.31696 | 9.96237 | 33011 ft | 452 kts | 161° |
| 2026-05-07 10:21 | 44.26060 | 10.00129 | 32933 ft | 453 kts | 161° |
| 2026-05-07 10:21 | 44.20428 | 10.04014 | 32908 ft | 453 kts | 161° |
| 2026-05-07 10:21 | 44.17589 | 10.05966 | 32673 ft | 453 kts | 161° |
| 2026-05-07 10:22 | 44.14771 | 10.07902 | 32689 ft | 452 kts | 161° |
| 2026-05-07 10:22 | 44.11944 | 10.09845 | 32912 ft | 453 kts | 161° |
| 2026-05-07 10:22 | 44.09130 | 10.11777 | 33114 ft | 457 kts | 161° |
| 2026-05-07 10:23 | 44.03350 | 10.15730 | 33027 ft | 465 kts | 161° |
| 2026-05-07 10:23 | 43.97562 | 10.19685 | 33010 ft | 466 kts | 161° |
| 2026-05-07 10:24 | 43.91772 | 10.23664 | 33003 ft | 468 kts | 158° |
| 2026-05-07 10:24 | 43.86304 | 10.28798 | 33000 ft | 477 kts | 150° |
| 2026-05-07 10:25 | 43.81046 | 10.34307 | 33005 ft | 477 kts | 150° |
| 2026-05-07 10:25 | 43.75742 | 10.39852 | 33006 ft | 478 kts | 150° |
| 2026-05-07 10:26 | 43.70438 | 10.45349 | 33010 ft | 478 kts | 150° |
| 2026-05-07 10:26 | 43.65120 | 10.50843 | 33010 ft | 476 kts | 150° |
| 2026-05-07 10:27 | 43.59829 | 10.56293 | 33007 ft | 475 kts | 150° |
| 2026-05-07 10:27 | 43.57220 | 10.58979 | 32853 ft | 469 kts | 150° |
| 2026-05-07 10:27 | 43.54615 | 10.61660 | 32308 ft | 465 kts | 150° |
| 2026-05-07 10:27 | 43.52050 | 10.64293 | 31642 ft | 463 kts | 150° |
| 2026-05-07 10:28 | 43.49481 | 10.66927 | 31024 ft | 458 kts | 151° |
| 2026-05-07 10:28 | 43.46943 | 10.69528 | 30436 ft | 453 kts | 151° |
| 2026-05-07 10:28 | 43.44414 | 10.72117 | 29792 ft | 449 kts | 151° |
| 2026-05-07 10:28 | 43.41944 | 10.74642 | 29188 ft | 444 kts | 151° |
| 2026-05-07 10:29 | 43.39494 | 10.77143 | 28569 ft | 440 kts | 151° |
| 2026-05-07 10:29 | 43.37024 | 10.79661 | 27743 ft | 441 kts | 151° |
| 2026-05-07 10:29 | 43.34558 | 10.82163 | 26618 ft | 448 kts | 150° |
| 2026-05-07 10:30 | 43.29559 | 10.87233 | 24805 ft | 447 kts | 149° |
| 2026-05-07 10:30 | 43.27094 | 10.89743 | 24125 ft | 441 kts | 149° |
| 2026-05-07 10:30 | 43.24665 | 10.92212 | 23447 ft | 435 kts | 149° |
| 2026-05-07 10:30 | 43.22255 | 10.94657 | 22752 ft | 431 kts | 149° |
| 2026-05-07 10:31 | 43.19857 | 10.97085 | 22058 ft | 427 kts | 149° |
| 2026-05-07 10:31 | 43.17471 | 10.99498 | 21340 ft | 424 kts | 149° |
| 2026-05-07 10:31 | 43.15097 | 11.01895 | 20367 ft | 428 kts | 148° |
| 2026-05-07 10:31 | 43.12699 | 11.04307 | 19193 ft | 435 kts | 148° |
| 2026-05-07 10:32 | 43.10268 | 11.06745 | 18074 ft | 440 kts | 148° |
| 2026-05-07 10:32 | 43.07801 | 11.09224 | 17250 ft | 437 kts | 147° |
| 2026-05-07 10:32 | 43.05389 | 11.11653 | 16561 ft | 431 kts | 147° |
| 2026-05-07 10:32 | 43.03002 | 11.14060 | 15857 ft | 425 kts | 147° |
| 2026-05-07 10:33 | 43.00611 | 11.16464 | 15281 ft | 428 kts | 147° |
| 2026-05-07 10:33 | 42.98219 | 11.18865 | 15008 ft | 428 kts | 147° |
| 2026-05-07 10:33 | 42.95826 | 11.21273 | 15000 ft | 429 kts | 147° |
| 2026-05-07 10:33 | 42.93426 | 11.23684 | 14997 ft | 429 kts | 147° |
| 2026-05-07 10:34 | 42.91034 | 11.26087 | 14991 ft | 428 kts | 147° |
| 2026-05-07 10:34 | 42.88646 | 11.28477 | 14985 ft | 429 kts | 147° |
| 2026-05-07 10:34 | 42.86224 | 11.30895 | 14987 ft | 428 kts | 147° |
| 2026-05-07 10:34 | 42.83842 | 11.33269 | 15000 ft | 428 kts | 147° |
| 2026-05-07 10:35 | 42.81418 | 11.35683 | 15009 ft | 429 kts | 147° |
| 2026-05-07 10:35 | 42.79031 | 11.38053 | 14999 ft | 428 kts | 147° |
| 2026-05-07 10:35 | 42.76619 | 11.40448 | 15002 ft | 429 kts | 147° |
| 2026-05-07 10:35 | 42.74211 | 11.42844 | 14997 ft | 428 kts | 147° |
| 2026-05-07 10:36 | 42.71816 | 11.45226 | 14999 ft | 429 kts | 147° |
| 2026-05-07 10:36 | 42.69414 | 11.47610 | 14998 ft | 428 kts | 147° |
| 2026-05-07 10:36 | 42.67034 | 11.49972 | 14999 ft | 429 kts | 147° |
| 2026-05-07 10:36 | 42.64628 | 11.52353 | 15004 ft | 428 kts | 147° |
| 2026-05-07 10:37 | 42.62222 | 11.54729 | 14995 ft | 428 kts | 147° |
| 2026-05-07 10:37 | 42.59809 | 11.57113 | 15003 ft | 428 kts | 147° |
| 2026-05-07 10:37 | 42.57391 | 11.59497 | 14999 ft | 428 kts | 147° |
| 2026-05-07 10:37 | 42.54982 | 11.61871 | 14998 ft | 427 kts | 147° |
| 2026-05-07 10:38 | 42.52608 | 11.64208 | 14800 ft | 419 kts | 147° |
| 2026-05-07 10:38 | 42.50302 | 11.66482 | 14069 ft | 414 kts | 148° |
| 2026-05-07 10:38 | 42.47965 | 11.68775 | 13140 ft | 411 kts | 147° |
| 2026-05-07 10:38 | 42.45667 | 11.71022 | 12264 ft | 409 kts | 147° |
| 2026-05-07 10:39 | 42.43412 | 11.73231 | 11460 ft | 402 kts | 147° |
| 2026-05-07 10:39 | 42.41157 | 11.75438 | 10588 ft | 398 kts | 146° |
| 2026-05-07 10:39 | 42.38919 | 11.77631 | 9757 ft | 397 kts | 146° |
| 2026-05-07 10:39 | 42.36699 | 11.79808 | 9008 ft | 392 kts | 146° |
| 2026-05-07 10:40 | 42.34506 | 11.81953 | 8443 ft | 387 kts | 146° |
| 2026-05-07 10:40 | 42.32378 | 11.84034 | 7950 ft | 373 kts | 146° |
| 2026-05-07 10:40 | 42.30359 | 11.86005 | 7511 ft | 347 kts | 146° |
| 2026-05-07 10:40 | 42.28430 | 11.87887 | 7064 ft | 337 kts | 145° |
| 2026-05-07 10:41 | 42.26547 | 11.89722 | 6642 ft | 330 kts | 145° |
| 2026-05-07 10:41 | 42.24706 | 11.91513 | 6258 ft | 322 kts | 145° |
| 2026-05-07 10:41 | 42.22913 | 11.93257 | 5907 ft | 315 kts | 145° |
| 2026-05-07 10:41 | 42.21171 | 11.94952 | 5586 ft | 308 kts | 145° |
| 2026-05-07 10:42 | 42.19449 | 11.96627 | 5292 ft | 300 kts | 144° |
| 2026-05-07 10:42 | 42.17783 | 11.98245 | 4975 ft | 293 kts | 144° |
| 2026-05-07 10:42 | 42.16148 | 11.99831 | 4693 ft | 286 kts | 144° |
| 2026-05-07 10:42 | 42.14642 | 12.01523 | 4376 ft | 281 kts | 136° |
| 2026-05-07 10:43 | 42.13276 | 12.03371 | 4095 ft | 275 kts | 134° |
| 2026-05-07 10:43 | 42.11954 | 12.05199 | 3868 ft | 267 kts | 134° |
| 2026-05-07 10:43 | 42.10675 | 12.06946 | 3670 ft | 259 kts | 134° |
| 2026-05-07 10:43 | 42.09430 | 12.08623 | 3476 ft | 251 kts | 135° |
| 2026-05-07 10:44 | 42.08193 | 12.10270 | 3214 ft | 247 kts | 135° |
| 2026-05-07 10:44 | 42.06995 | 12.11856 | 2993 ft | 240 kts | 134° |
| 2026-05-07 10:44 | 42.05833 | 12.13389 | 2962 ft | 226 kts | 134° |
| 2026-05-07 10:44 | 42.04746 | 12.14821 | 2951 ft | 211 kts | 134° |
| 2026-05-07 10:45 | 42.03431 | 12.16556 | 3025 ft | 188 kts | 134° |
| 2026-05-07 10:45 | 42.02818 | 12.17361 | 2988 ft | 176 kts | 136° |
| 2026-05-07 10:45 | 42.01910 | 12.18340 | 2954 ft | 157 kts | 146° |
| 2026-05-07 10:45 | 42.01012 | 12.19014 | 2945 ft | 144 kts | 154° |
| 2026-05-07 10:46 | 42.00104 | 12.19530 | 2954 ft | 142 kts | 158° |